Great Falls/Malmstrom AFB, Montana
Current Conditions -  °F | °C
As of 6:53 AM on Monday 24 Nov 2014 (Local Time) from KGTF Reporting Station
Broken Clouds Broken Clouds  
Wind Chill: -6°   Ceiling: 10000
Heat Index: -1°   Visibility: 10mi
Dew Point: -6°   Wind: 9mph
Humidity: 72%   Direction: 240°WSW
Pressure: 30.01"   Gusts: NA
Location:  47.47°N, 111.32°W
Report Text: KGTF 241353Z 24008KT 10SM BKN100 M01/M06 A3001 RMK AO2 SLP199 T10111056
Loading
Personal Weather Stations






























Interactive Weather Map New forecast layout! Learn more

10-Day Weather Forecast

Advertisements
Track Severe Weather on mobile